Time;durP1;ratioP1;P1;durP2;ratioP2;P2;SDS_P1;SDS_P2;PMS_P1;PMS_P2;Temp;Humidity;BMP_temperature;BMP_pressure;BME280_temperature;BME280_humidity;BME280_pressure;Samples;Min_cycle;Max_cycle;Signal;HPM_P1;HPM_P2
2023/06/11 00:01:46;;;;;;;2.70;0.80;;;;;;;;;;5105545;28;20428;-74
2023/06/11 00:04:25;;;;;;;1.63;1.08;;;;;;;;;;5105647;28;20405;-75
2023/06/11 00:06:58;;;;;;;2.20;1.23;;;;;;;;;;5102984;28;20536;-75
2023/06/11 00:09:29;;;;;;;1.85;1.20;;;;;;;;;;5087467;28;20039;-72
2023/06/11 00:11:59;;;;;;;2.83;1.45;;;;;;;;;;5105622;28;20520;-74
2023/06/11 00:14:29;;;;;;;2.80;1.25;;;;;;;;;;5087663;28;20043;-75
2023/06/11 00:17:00;;;;;;;1.23;1.00;;;;;;;;;;5105559;28;20509;-75
2023/06/11 00:19:32;;;;;;;1.73;1.02;;;;;;;;;;5105585;28;20048;-76
2023/06/11 00:22:05;;;;;;;1.08;0.60;;;;;;;;;;5104785;28;20429;-75
2023/06/11 00:24:36;;;;;;;1.38;0.90;;;;;;;;;;5102818;28;20040;-76
2023/06/11 00:27:06;;;;;;;6.40;2.10;;;;;;;;;;5105345;28;20059;-75
2023/06/11 00:29:37;;;;;;;2.03;0.75;;;;;;;;;;5103294;28;20975;-76
2023/06/11 00:32:08;;;;;;;7.28;1.05;;;;;;;;;;5087162;28;20054;-76
2023/06/11 00:34:39;;;;;;;1.58;0.88;;;;;;;;;;5086741;28;20506;-76
2023/06/11 00:37:11;;;;;;;8.88;1.30;;;;;;;;;;5102806;28;20040;-76
2023/06/11 00:39:41;;;;;;;1.80;0.65;;;;;;;;;;5086699;28;20051;-76
2023/06/11 00:42:12;;;;;;;3.97;0.80;;;;;;;;;;5102599;28;20047;-75
2023/06/11 00:44:44;;;;;;;1.48;0.60;;;;;;;;;;5102387;28;20036;-75
2023/06/11 00:47:18;;;;;;;1.00;0.50;;;;;;;;;;5086715;28;20054;-74
2023/06/11 00:49:48;;;;;;;5.93;0.80;;;;;;;;;;5085101;28;20058;-75
2023/06/11 00:52:19;;;;;;;0.43;0.22;;;;;;;;;;5086382;28;20402;-75
2023/06/11 00:54:52;;;;;;;4.35;0.40;;;;;;;;;;5104789;28;20044;-73
2023/06/11 00:57:26;;;;;;;1.10;0.55;;;;;;;;;;5102308;28;20056;-75
2023/06/11 00:59:57;;;;;;;0.40;0.40;;;;;;;;;;5104653;28;20034;-75
2023/06/11 01:02:44;;;;;;;1.85;0.50;;;;;;;;;;5103526;28;20035;-75
2023/06/11 01:05:17;;;;;;;1.08;0.50;;;;;;;;;;5104297;28;20042;-75
2023/06/11 01:07:51;;;;;;;0.40;0.40;;;;;;;;;;5103280;28;20048;-76
2023/06/11 01:10:29;;;;;;;0.60;0.32;;;;;;;;;;5083867;28;20055;-75
2023/06/11 01:13:01;;;;;;;2.95;1.08;;;;;;;;;;5104772;28;20047;-75
2023/06/11 01:15:33;;;;;;;3.15;0.60;;;;;;;;;;5086460;28;20421;-76
2023/06/11 01:18:12;;;;;;;1.05;0.77;;;;;;;;;;5102597;28;20043;-73
2023/06/11 01:20:51;;;;;;;1.95;0.40;;;;;;;;;;5086170;28;20063;-73
2023/06/11 01:23:33;;;;;;;0.73;0.28;;;;;;;;;;5086035;28;20413;-74
2023/06/11 01:26:05;;;;;;;0.47;0.30;;;;;;;;;;5084993;28;20461;-77
2023/06/11 01:28:38;;;;;;;0.73;0.10;;;;;;;;;;5084998;28;20055;-75
2023/06/11 01:31:14;;;;;;;0.93;0.25;;;;;;;;;;5085589;28;20055;-74
2023/06/11 01:33:46;;;;;;;0.95;0.22;;;;;;;;;;5085495;28;20063;-74
2023/06/11 01:36:24;;;;;;;2.65;0.30;;;;;;;;;;5085946;28;20082;-74
2023/06/11 01:38:54;;;;;;;0.30;0.30;;;;;;;;;;5086376;28;20506;-75
2023/06/11 01:41:37;;;;;;;0.50;0.30;;;;;;;;;;5086061;28;20067;-75
2023/06/11 01:44:10;;;;;;;4.43;0.52;;;;;;;;;;5086416;28;20062;-75
2023/06/11 01:46:42;;;;;;;0.65;0.20;;;;;;;;;;5086379;28;20055;-74
2023/06/11 01:49:14;;;;;;;0.75;0.10;;;;;;;;;;5086986;28;20404;-74
2023/06/11 01:51:45;;;;;;;1.45;0.30;;;;;;;;;;5086325;28;20055;-74
2023/06/11 01:54:17;;;;;;;0.70;0.30;;;;;;;;;;5086485;28;20059;-74
2023/06/11 01:56:48;;;;;;;2.08;0.25;;;;;;;;;;5086486;28;20438;-75
2023/06/11 01:59:21;;;;;;;3.35;0.25;;;;;;;;;;5085389;28;20059;-75
2023/06/11 02:01:53;;;;;;;5.68;0.52;;;;;;;;;;5084692;28;20058;-75
2023/06/11 02:04:24;;;;;;;1.42;0.17;;;;;;;;;;5084448;28;20050;-75
2023/06/11 02:06:55;;;;;;;0.75;0.30;;;;;;;;;;5084466;28;20058;-76
2023/06/11 02:09:25;;;;;;;1.55;0.30;;;;;;;;;;5088517;28;20537;-76
2023/06/11 02:11:55;;;;;;;0.90;0.28;;;;;;;;;;5089268;28;20525;-75
2023/06/11 02:14:25;;;;;;;1.05;0.38;;;;;;;;;;5088682;28;20063;-75
2023/06/11 02:16:56;;;;;;;0.35;0.20;;;;;;;;;;5108165;28;20048;-76
2023/06/11 02:19:35;;;;;;;4.72;0.38;;;;;;;;;;5089723;28;20111;-75
2023/06/11 02:22:06;;;;;;;0.47;0.13;;;;;;;;;;5089822;28;20532;-75
2023/06/11 02:24:36;;;;;;;0.90;0.28;;;;;;;;;;5108279;28;20047;-76
2023/06/11 02:27:06;;;;;;;1.67;0.15;;;;;;;;;;5108268;28;20051;-76
2023/06/11 02:29:37;;;;;;;0.20;0.17;;;;;;;;;;5089816;28;20891;-75
2023/06/11 02:32:08;;;;;;;0.95;0.20;;;;;;;;;;5089794;28;20060;-75
2023/06/11 02:34:38;;;;;;;0.98;0.30;;;;;;;;;;5089469;28;20051;-76
2023/06/11 02:37:08;;;;;;;3.20;0.38;;;;;;;;;;5108211;28;20070;-75
2023/06/11 02:39:39;;;;;;;0.22;0.10;;;;;;;;;;5089530;28;20123;-75
2023/06/11 02:42:11;;;;;;;3.35;0.40;;;;;;;;;;5090502;28;20040;-76
2023/06/11 02:44:41;;;;;;;0.38;0.20;;;;;;;;;;5089920;28;20052;-75
2023/06/11 02:47:13;;;;;;;1.58;0.15;;;;;;;;;;5090333;28;20051;-76
2023/06/11 02:49:42;;;;;;;3.60;0.40;;;;;;;;;;5108012;28;20054;-75
2023/06/11 02:52:13;;;;;;;7.00;0.45;;;;;;;;;;5108387;28;20054;-75
2023/06/11 02:54:46;;;;;;;0.22;0.10;;;;;;;;;;5090227;28;20044;-75
2023/06/11 02:57:17;;;;;;;2.35;0.28;;;;;;;;;;5107926;28;20067;-77
2023/06/11 02:59:48;;;;;;;1.15;0.22;;;;;;;;;;5108565;28;20047;-76
2023/06/11 03:02:18;;;;;;;2.78;0.60;;;;;;;;;;5089948;28;20063;-76
2023/06/11 03:04:49;;;;;;;3.60;0.47;;;;;;;;;;5089250;28;20044;-75
2023/06/11 03:07:21;;;;;;;3.08;0.65;;;;;;;;;;5089457;28;20054;-77
2023/06/11 03:09:51;;;;;;;3.70;0.80;;;;;;;;;;5088781;28;20047;-75
2023/06/11 03:12:22;;;;;;;8.52;0.80;;;;;;;;;;5089275;28;20078;-75
2023/06/11 03:14:53;;;;;;;5.38;0.63;;;;;;;;;;5089269;28;20387;-75
2023/06/11 03:17:24;;;;;;;1.83;0.50;;;;;;;;;;5106777;28;20051;-75
2023/06/11 03:19:55;;;;;;;2.17;0.40;;;;;;;;;;5089996;28;20059;-77
2023/06/11 03:22:26;;;;;;;3.05;0.70;;;;;;;;;;5088484;28;20052;-76
2023/06/11 03:24:55;;;;;;;4.90;0.70;;;;;;;;;;5088942;28;20078;-78
2023/06/11 03:27:32;;;;;;;6.70;0.50;;;;;;;;;;5088979;28;20054;-77
2023/06/11 03:30:05;;;;;;;5.53;0.60;;;;;;;;;;5088278;28;20063;-76
2023/06/11 03:32:41;;;;;;;2.53;0.43;;;;;;;;;;5088909;28;20051;-76
2023/06/11 03:35:13;;;;;;;5.47;0.60;;;;;;;;;;5089294;28;20052;-76
2023/06/11 03:37:45;;;;;;;3.92;0.80;;;;;;;;;;5107566;28;20055;-76
2023/06/11 03:40:21;;;;;;;3.97;0.45;;;;;;;;;;5088493;28;20063;-76
2023/06/11 03:42:54;;;;;;;4.03;0.77;;;;;;;;;;5088094;28;20059;-76
2023/06/11 03:45:29;;;;;;;2.28;0.50;;;;;;;;;;5087893;28;20596;-77
2023/06/11 03:48:02;;;;;;;2.85;0.43;;;;;;;;;;5088227;28;20047;-76
2023/06/11 03:50:34;;;;;;;4.20;0.80;;;;;;;;;;5087601;28;20063;-76
2023/06/11 03:53:04;;;;;;;1.65;0.50;;;;;;;;;;5106691;28;20063;-77
2023/06/11 03:55:34;;;;;;;1.33;0.50;;;;;;;;;;5105911;28;20046;-77
2023/06/11 03:58:07;;;;;;;1.60;0.22;;;;;;;;;;5089143;28;20055;-77
2023/06/11 04:00:38;;;;;;;2.20;0.47;;;;;;;;;;5089644;28;20061;-77
2023/06/11 04:03:08;;;;;;;7.45;0.55;;;;;;;;;;5090341;28;20051;-77
2023/06/11 04:05:41;;;;;;;1.38;0.40;;;;;;;;;;5089389;28;20048;-76
2023/06/11 04:08:12;;;;;;;0.68;0.13;;;;;;;;;;5089133;28;20048;-77
2023/06/11 04:10:44;;;;;;;1.52;0.22;;;;;;;;;;5088210;28;20051;-77
2023/06/11 04:13:15;;;;;;;0.28;0.10;;;;;;;;;;5087888;28;20070;-77
2023/06/11 04:15:47;;;;;;;3.40;0.40;;;;;;;;;;5087807;28;20422;-77
2023/06/11 04:18:18;;;;;;;1.73;0.25;;;;;;;;;;5087806;28;20063;-76
2023/06/11 04:20:51;;;;;;;2.70;0.40;;;;;;;;;;5087358;28;20059;-76
2023/06/11 04:23:21;;;;;;;2.90;0.30;;;;;;;;;;5087799;28;20054;-76
2023/06/11 04:25:51;;;;;;;;;;;;;;;;;;5088434;28;20047;-76
2023/06/11 04:28:23;;;;;;;0.30;0.30;;;;;;;;;;5087399;28;19923;-76
2023/06/11 04:30:58;;;;;;;2.10;0.28;;;;;;;;;;5106741;28;20051;-77
2023/06/11 04:33:36;;;;;;;1.33;0.30;;;;;;;;;;5091468;28;20059;-77
2023/06/11 04:36:11;;;;;;;1.08;0.32;;;;;;;;;;5089669;28;20070;-76
2023/06/11 04:38:44;;;;;;;0.82;0.30;;;;;;;;;;5087302;28;20044;-77
2023/06/11 04:41:18;;;;;;;2.28;0.40;;;;;;;;;;5089887;28;20074;-76
2023/06/11 04:43:52;;;;;;;2.05;0.40;;;;;;;;;;5087833;28;20047;-77
2023/06/11 04:46:24;;;;;;;1.48;0.25;;;;;;;;;;5087891;28;20065;-77
2023/06/11 04:49:00;;;;;;;2.70;0.20;;;;;;;;;;5106551;28;20043;-77
2023/06/11 04:51:32;;;;;;;3.30;0.35;;;;;;;;;;5088899;28;20052;-77
2023/06/11 04:54:07;;;;;;;0.50;0.15;;;;;;;;;;5087501;28;20052;-76
2023/06/11 04:56:44;;;;;;;1.35;0.25;;;;;;;;;;5085363;28;20521;-77
2023/06/11 04:59:15;;;;;;;0.25;0.17;;;;;;;;;;5085299;28;20051;-77
2023/06/11 05:01:50;;;;;;;1.65;0.28;;;;;;;;;;5086306;28;20380;-77
2023/06/11 05:04:22;;;;;;;0.50;0.17;;;;;;;;;;5086304;28;20066;-77
2023/06/11 05:06:54;;;;;;;2.05;0.40;;;;;;;;;;5085440;28;20044;-76
2023/06/11 05:09:27;;;;;;;0.63;0.20;;;;;;;;;;5085106;28;20052;-76
2023/06/11 05:11:57;;;;;;;1.25;0.20;;;;;;;;;;5084544;28;20062;-77
2023/06/11 05:14:30;;;;;;;2.47;0.22;;;;;;;;;;5086002;28;20418;-78
2023/06/11 05:17:02;;;;;;;5.20;0.63;;;;;;;;;;5083965;28;20066;-77
2023/06/11 05:19:33;;;;;;;0.85;0.30;;;;;;;;;;5087389;28;20051;-77
2023/06/11 05:22:06;;;;;;;1.13;0.30;;;;;;;;;;5085232;28;20052;-77
2023/06/11 05:24:41;;;;;;;0.75;0.20;;;;;;;;;;5067271;28;20376;-77
2023/06/11 05:27:12;;;;;;;1.35;0.20;;;;;;;;;;5087442;28;20056;-77
2023/06/11 05:29:44;;;;;;;6.80;0.50;;;;;;;;;;5085650;28;20359;-78
2023/06/11 05:32:15;;;;;;;0.90;0.32;;;;;;;;;;5089174;28;20055;-78
2023/06/11 05:34:49;;;;;;;0.10;0.10;;;;;;;;;;5066667;28;20059;-76
2023/06/11 05:37:23;;;;;;;4.38;0.55;;;;;;;;;;5081504;28;20059;-77
2023/06/11 05:39:54;;;;;;;2.80;0.30;;;;;;;;;;5080683;28;20056;-77
2023/06/11 05:42:25;;;;;;;0.55;0.20;;;;;;;;;;5082681;28;20048;-76
2023/06/11 05:44:56;;;;;;;3.92;0.40;;;;;;;;;;5086512;28;20391;-77
2023/06/11 05:47:28;;;;;;;2.13;0.30;;;;;;;;;;5085011;28;20055;-77
2023/06/11 05:50:00;;;;;;;1.77;0.20;;;;;;;;;;5087226;28;20052;-77
2023/06/11 05:52:33;;;;;;;0.90;0.30;;;;;;;;;;5087387;28;20048;-77
2023/06/11 05:55:06;;;;;;;2.28;0.50;;;;;;;;;;5086640;28;20052;-76
2023/06/11 05:57:36;;;;;;;2.20;0.40;;;;;;;;;;5086577;28;20387;-77
2023/06/11 06:00:09;;;;;;;3.30;0.20;;;;;;;;;;5088542;28;20414;-77
2023/06/11 06:02:43;;;;;;;3.03;0.20;;;;;;;;;;5093725;28;20055;-77
2023/06/11 06:05:22;;;;;;;1.67;0.30;;;;;;;;;;5086962;28;20510;-76
2023/06/11 06:07:52;;;;;;;0.85;0.30;;;;;;;;;;5087070;28;20044;-77
2023/06/11 06:10:23;;;;;;;2.55;0.32;;;;;;;;;;5086678;28;20075;-77
2023/06/11 06:12:54;;;;;;;0.30;0.20;;;;;;;;;;5088630;28;20040;-77
2023/06/11 06:15:26;;;;;;;1.02;0.10;;;;;;;;;;5086501;28;20063;-77
2023/06/11 06:17:57;;;;;;;5.20;0.47;;;;;;;;;;5087189;28;20056;-78
2023/06/11 06:20:36;;;;;;;4.13;0.50;;;;;;;;;;5087088;28;20059;-77
2023/06/11 06:23:07;;;;;;;0.43;0.20;;;;;;;;;;5088406;28;20052;-77
2023/06/11 06:25:41;;;;;;;0.95;0.28;;;;;;;;;;5087393;28;20519;-76
2023/06/11 06:28:14;;;;;;;1.30;0.20;;;;;;;;;;5087839;28;20048;-76
2023/06/11 06:30:44;;;;;;;1.58;0.20;;;;;;;;;;5088624;28;20058;-75
2023/06/11 06:33:16;;;;;;;0.63;0.20;;;;;;;;;;5070523;28;20537;-76
2023/06/11 06:35:48;;;;;;;1.67;0.20;;;;;;;;;;5086788;28;20067;-77
2023/06/11 06:38:20;;;;;;;0.57;0.17;;;;;;;;;;5087178;28;20407;-76
2023/06/11 06:40:50;;;;;;;0.22;0.10;;;;;;;;;;5086870;28;20134;-76
2023/06/11 06:43:21;;;;;;;0.95;0.20;;;;;;;;;;5086408;28;20064;-77
2023/06/11 06:45:57;;;;;;;2.72;0.43;;;;;;;;;;5087247;28;20059;-75
2023/06/11 06:48:32;;;;;;;2.45;0.20;;;;;;;;;;5086400;28;20044;-76
2023/06/11 06:51:03;;;;;;;4.38;0.30;;;;;;;;;;5088536;28;20051;-76
2023/06/11 06:53:33;;;;;;;1.73;0.20;;;;;;;;;;5087552;28;20044;-76
2023/06/11 06:56:05;;;;;;;0.82;0.25;;;;;;;;;;5087258;28;20063;-75
2023/06/11 06:58:35;;;;;;;4.30;0.40;;;;;;;;;;5089492;28;20047;-77
2023/06/11 07:01:06;;;;;;;1.27;0.40;;;;;;;;;;5089744;28;20066;-77
2023/06/11 07:03:41;;;;;;;0.68;0.20;;;;;;;;;;5088452;28;20059;-77
2023/06/11 07:06:11;;;;;;;2.83;0.38;;;;;;;;;;5090210;28;20055;-77
2023/06/11 07:08:42;;;;;;;1.95;0.47;;;;;;;;;;5087723;28;20056;-77
2023/06/11 07:11:14;;;;;;;;;;;;;;;;;;5087734;28;20059;-77
2023/06/11 07:13:47;;;;;;;0.90;0.28;;;;;;;;;;5087931;28;19938;-77
2023/06/11 07:16:17;;;;;;;1.25;0.20;;;;;;;;;;5088514;28;20040;-77
2023/06/11 07:18:53;;;;;;;2.75;0.30;;;;;;;;;;5089237;28;20040;-77
2023/06/11 07:21:24;;;;;;;2.30;0.25;;;;;;;;;;5087032;28;20044;-76
2023/06/11 07:23:58;;;;;;;0.52;0.40;;;;;;;;;;5085738;28;20052;-76
2023/06/11 07:26:28;;;;;;;0.50;0.17;;;;;;;;;;5088448;28;20051;-77
2023/06/11 07:28:59;;;;;;;1.67;0.25;;;;;;;;;;5086596;28;20048;-76
2023/06/11 07:31:29;;;;;;;0.30;0.10;;;;;;;;;;5085379;28;20476;-76
2023/06/11 07:33:59;;;;;;;;;;;;;;;;;;5085983;28;20059;-76
2023/06/11 07:36:31;;;;;;;2.90;0.20;;;;;;;;;;5085310;28;20741;-76
2023/06/11 07:39:03;;;;;;;0.40;0.20;;;;;;;;;;5085304;28;20056;-76
2023/06/11 07:41:34;;;;;;;2.38;0.45;;;;;;;;;;5086773;28;20051;-77
2023/06/11 07:44:04;;;;;;;2.67;0.10;;;;;;;;;;5085049;28;20541;-76
2023/06/11 07:46:36;;;;;;;3.08;0.30;;;;;;;;;;5068757;28;20055;-76
2023/06/11 07:49:08;;;;;;;0.10;0.10;;;;;;;;;;5086789;28;20040;-76
2023/06/11 07:51:42;;;;;;;0.77;0.20;;;;;;;;;;5085534;28;20399;-76
2023/06/11 07:54:12;;;;;;;1.98;0.40;;;;;;;;;;5084452;28;20052;-76
2023/06/11 07:56:46;;;;;;;3.67;0.20;;;;;;;;;;5095174;28;20510;-76
2023/06/11 07:59:18;;;;;;;1.15;0.25;;;;;;;;;;5106323;28;20503;-76
2023/06/11 08:01:48;;;;;;;1.73;0.22;;;;;;;;;;5106487;28;20051;-76
2023/06/11 08:04:17;;;;;;;;;;;;;;;;;;5107554;28;20054;-76
2023/06/11 08:06:48;;;;;;;3.20;0.30;;;;;;;;;;5106503;28;19923;-76
2023/06/11 08:09:20;;;;;;;1.55;0.38;;;;;;;;;;5106472;28;20047;-77
2023/06/11 08:11:51;;;;;;;1.38;0.20;;;;;;;;;;5106117;28;20627;-77
2023/06/11 08:14:21;;;;;;;2.97;0.40;;;;;;;;;;5106215;28;20043;-76
2023/06/11 08:16:51;;;;;;;5.18;0.47;;;;;;;;;;5106338;28;20410;-76
2023/06/11 08:19:22;;;;;;;0.85;0.30;;;;;;;;;;5106163;28;20071;-76
2023/06/11 08:22:00;;;;;;;0.10;0.10;;;;;;;;;;5106657;28;20044;-76
2023/06/11 08:24:31;;;;;;;0.80;0.30;;;;;;;;;;5106785;28;20036;-76
2023/06/11 08:27:02;;;;;;;0.20;0.20;;;;;;;;;;5106027;28;20043;-76
2023/06/11 08:29:32;;;;;;;3.90;0.40;;;;;;;;;;5106071;28;20624;-76
2023/06/11 08:32:05;;;;;;;0.43;0.20;;;;;;;;;;5105647;28;20098;-75
2023/06/11 08:34:37;;;;;;;1.60;0.20;;;;;;;;;;5105915;28;20048;-76
2023/06/11 08:37:08;;;;;;;1.75;0.30;;;;;;;;;;5106254;28;20525;-75
2023/06/11 08:39:37;;;;;;;2.30;0.28;;;;;;;;;;5106044;28;20047;-75
2023/06/11 08:42:09;;;;;;;0.88;0.20;;;;;;;;;;5105790;28;20048;-76
2023/06/11 08:44:39;;;;;;;0.55;0.20;;;;;;;;;;5105395;28;20062;-76
2023/06/11 08:47:12;;;;;;;1.17;0.20;;;;;;;;;;5106019;28;20032;-75
2023/06/11 08:49:45;;;;;;;1.95;0.40;;;;;;;;;;5105766;28;20058;-75
2023/06/11 08:52:17;;;;;;;0.95;0.32;;;;;;;;;;5105850;28;20047;-75
2023/06/11 08:54:48;;;;;;;2.25;0.35;;;;;;;;;;5105687;28;20062;-74
2023/06/11 08:57:19;;;;;;;3.05;0.40;;;;;;;;;;5105543;28;20412;-75
2023/06/11 08:59:49;;;;;;;0.20;0.20;;;;;;;;;;5106264;28;20052;-74
2023/06/11 09:02:20;;;;;;;1.27;0.28;;;;;;;;;;5105830;28;20090;-75
2023/06/11 09:04:51;;;;;;;0.40;0.15;;;;;;;;;;5105507;28;20398;-75
2023/06/11 09:07:25;;;;;;;0.38;0.22;;;;;;;;;;5105684;28;20036;-74
2023/06/11 09:10:09;;;;;;;1.23;0.15;;;;;;;;;;5105540;28;20043;-75
2023/06/11 09:12:40;;;;;;;0.20;0.10;;;;;;;;;;5106182;28;20040;-76
2023/06/11 09:15:12;;;;;;;2.90;0.70;;;;;;;;;;5105764;28;20055;-74
2023/06/11 09:17:46;;;;;;;0.95;0.40;;;;;;;;;;5104235;28;20395;-75
2023/06/11 09:20:17;;;;;;;1.85;0.60;;;;;;;;;;5086298;28;20055;-74
2023/06/11 09:22:50;;;;;;;0.98;0.32;;;;;;;;;;5105803;28;20043;-74
2023/06/11 09:25:21;;;;;;;2.88;0.30;;;;;;;;;;5105661;28;20772;-75
2023/06/11 09:27:52;;;;;;;0.60;0.38;;;;;;;;;;5105100;28;20054;-74
2023/06/11 09:30:21;;;;;;;1.17;0.20;;;;;;;;;;5105358;28;20702;-75
2023/06/11 09:32:52;;;;;;;0.40;0.10;;;;;;;;;;5105244;28;20402;-75
2023/06/11 09:35:24;;;;;;;2.20;0.38;;;;;;;;;;5104975;28;20047;-75
2023/06/11 09:37:56;;;;;;;1.30;0.10;;;;;;;;;;5105085;28;20596;-74
2023/06/11 09:40:34;;;;;;;0.63;0.20;;;;;;;;;;5105222;28;20039;-74
2023/06/11 09:43:06;;;;;;;2.03;0.30;;;;;;;;;;5105209;28;20051;-74
2023/06/11 09:45:38;;;;;;;1.55;0.40;;;;;;;;;;5105084;28;20035;-74
2023/06/11 09:48:14;;;;;;;2.13;0.30;;;;;;;;;;5105692;28;20051;-74
2023/06/11 09:50:45;;;;;;;2.25;0.38;;;;;;;;;;5104982;28;20047;-75
2023/06/11 09:53:16;;;;;;;1.00;0.32;;;;;;;;;;5104860;28;20046;-74
2023/06/11 09:55:50;;;;;;;3.00;0.40;;;;;;;;;;5104609;28;20047;-75
2023/06/11 09:58:24;;;;;;;1.77;0.20;;;;;;;;;;5105053;28;20055;-75
2023/06/11 10:01:00;;;;;;;0.15;0.15;;;;;;;;;;5105060;28;20052;-74
2023/06/11 10:03:35;;;;;;;2.10;0.22;;;;;;;;;;5104858;28;20040;-75
2023/06/11 10:06:10;;;;;;;1.88;0.30;;;;;;;;;;5105398;28;20055;-74
2023/06/11 10:08:48;;;;;;;0.60;0.25;;;;;;;;;;5104693;28;20047;-74
2023/06/11 10:11:23;;;;;;;1.05;0.20;;;;;;;;;;5105304;28;20051;-74
2023/06/11 10:14:00;;;;;;;0.20;0.20;;;;;;;;;;5104812;28;20054;-74
2023/06/11 10:16:32;;;;;;;1.45;0.40;;;;;;;;;;5104832;28;20048;-74
2023/06/11 10:19:14;;;;;;;0.52;0.30;;;;;;;;;;5104942;28;20051;-74
2023/06/11 10:21:50;;;;;;;1.23;0.35;;;;;;;;;;5105041;28;20043;-74
2023/06/11 10:24:24;;;;;;;1.10;0.50;;;;;;;;;;5104701;28;20055;-74
2023/06/11 10:27:14;;;;;;;5.47;0.63;;;;;;;;;;5104841;28;20383;-75
2023/06/11 10:29:49;;;;;;;1.33;0.50;;;;;;;;;;5107191;28;20070;-76
2023/06/11 10:32:23;;;;;;;0.40;0.28;;;;;;;;;;5108478;28;20059;-76
2023/06/11 10:34:55;;;;;;;2.30;0.65;;;;;;;;;;5108280;28;20074;-76
2023/06/11 10:37:30;;;;;;;2.88;1.10;;;;;;;;;;5108274;28;20047;-77
2023/06/11 10:40:01;;;;;;;2.80;0.95;;;;;;;;;;5108296;28;20073;-76
2023/06/11 10:42:39;;;;;;;1.27;0.80;;;;;;;;;;5089189;28;20399;-76
2023/06/11 10:45:11;;;;;;;2.83;0.93;;;;;;;;;;5108136;28;20394;-76
2023/06/11 10:47:50;;;;;;;2.28;1.13;;;;;;;;;;5089700;28;20055;-76
2023/06/11 10:50:31;;;;;;;5.70;1.58;;;;;;;;;;5108065;28;20046;-76
2023/06/11 10:53:08;;;;;;;4.18;1.10;;;;;;;;;;5108483;28;20510;-76
2023/06/11 10:55:43;;;;;;;2.67;1.15;;;;;;;;;;5106266;28;20051;-76
2023/06/11 10:58:24;;;;;;;2.63;0.80;;;;;;;;;;5104821;28;20410;-76
2023/06/11 11:00:54;;;;;;;2.72;0.90;;;;;;;;;;5088758;28;20062;-76
2023/06/11 11:03:30;;;;;;;1.63;1.00;;;;;;;;;;5107357;28;20422;-77
2023/06/11 11:06:01;;;;;;;1.55;0.95;;;;;;;;;;5108192;28;20042;-77
2023/06/11 11:08:31;;;;;;;0.70;0.50;;;;;;;;;;5107243;28;20040;-74
2023/06/11 11:11:02;;;;;;;0.73;0.60;;;;;;;;;;5107576;28;20044;-76
2023/06/11 11:13:33;;;;;;;3.03;0.57;;;;;;;;;;5107990;28;20055;-76
2023/06/11 11:16:04;;;;;;;1.70;0.95;;;;;;;;;;5108123;28;20055;-76
2023/06/11 11:18:37;;;;;;;1.05;0.93;;;;;;;;;;5107722;28;20039;-75
2023/06/11 11:21:07;;;;;;;2.55;0.88;;;;;;;;;;5107748;28;20380;-76
2023/06/11 11:23:39;;;;;;;1.00;0.80;;;;;;;;;;5088240;28;20058;-76
2023/06/11 11:26:10;;;;;;;3.55;0.85;;;;;;;;;;5107397;28;20043;-76
2023/06/11 11:28:41;;;;;;;1.40;0.70;;;;;;;;;;5107208;28;20058;-76
2023/06/11 11:31:12;;;;;;;;;;;;;;;;;;5108501;28;20418;-76
2023/06/11 11:33:47;;;;;;;0.65;0.50;;;;;;;;;;5107587;28;19930;-77
2023/06/11 11:36:17;;;;;;;1.13;0.90;;;;;;;;;;5107065;28;20048;-76
2023/06/11 11:38:48;;;;;;;1.92;0.90;;;;;;;;;;5106751;28;20529;-75
2023/06/11 11:41:24;;;;;;;2.20;0.85;;;;;;;;;;5088986;28;20048;-76
2023/06/11 11:43:55;;;;;;;1.00;0.90;;;;;;;;;;5106983;28;20045;-76
2023/06/11 11:46:27;;;;;;;3.40;0.90;;;;;;;;;;5107753;28;20055;-76
2023/06/11 11:49:01;;;;;;;1.38;0.90;;;;;;;;;;5106876;28;20055;-76
2023/06/11 11:51:35;;;;;;;1.33;0.68;;;;;;;;;;5107194;28;20047;-76
2023/06/11 11:54:07;;;;;;;1.83;1.08;;;;;;;;;;5106410;28;20047;-76
2023/06/11 11:56:40;;;;;;;2.47;1.73;;;;;;;;;;5106481;28;20052;-75
2023/06/11 11:59:23;;;;;;;2.33;1.70;;;;;;;;;;5106962;28;20044;-76
2023/06/11 12:01:57;;;;;;;7.78;3.97;;;;;;;;;;5087907;28;20055;-76
2023/06/11 12:04:46;;;;;;;9.88;4.78;;;;;;;;;;5107008;28;20043;-75
2023/06/11 12:07:22;;;;;;;5.10;2.28;;;;;;;;;;5106483;28;20051;-76
2023/06/11 12:09:53;;;;;;;4.75;2.45;;;;;;;;;;5106479;28;20055;-76
2023/06/11 12:12:23;;;;;;;3.67;1.73;;;;;;;;;;5106428;28;20521;-75
2023/06/11 12:14:53;;;;;;;8.60;2.35;;;;;;;;;;5106431;28;20051;-76
2023/06/11 12:17:23;;;;;;;;;;;;;;;;;;5106666;28;20051;-76
2023/06/11 12:19:54;;;;;;;3.35;1.75;;;;;;;;;;5106438;28;19924;-76
2023/06/11 12:22:26;;;;;;;5.75;2.25;;;;;;;;;;5106373;28;20055;-76
2023/06/11 12:24:56;;;;;;;3.50;2.28;;;;;;;;;;5107965;28;20051;-76
2023/06/11 12:27:28;;;;;;;;;;;;;;;;;;5106151;28;20043;-75
2023/06/11 12:30:00;;;;;;;6.40;2.65;;;;;;;;;;5105999;28;20305;-75
2023/06/11 12:32:31;;;;;;;6.07;2.90;;;;;;;;;;5106074;28;20506;-76
2023/06/11 12:35:00;;;;;;;7.82;3.30;;;;;;;;;;5106520;28;20035;-77
2023/06/11 12:37:32;;;;;;;5.85;2.78;;;;;;;;;;5087166;28;20055;-77
2023/06/11 12:40:05;;;;;;;6.35;3.47;;;;;;;;;;5105778;28;20052;-76
2023/06/11 12:42:35;;;;;;;5.75;3.17;;;;;;;;;;5105981;28;20528;-77
2023/06/11 12:45:05;;;;;;;;;;;;;;;;;;5106644;28;20044;-76
2023/06/11 12:47:36;;;;;;;7.30;3.10;;;;;;;;;;5105342;28;19923;-76
2023/06/11 12:50:08;;;;;;;7.22;3.70;;;;;;;;;;5105689;28;20048;-76
2023/06/11 12:52:41;;;;;;;8.23;3.05;;;;;;;;;;5104457;28;20051;-77
2023/06/11 12:55:15;;;;;;;4.75;2.75;;;;;;;;;;5104791;28;20066;-77
2023/06/11 12:57:53;;;;;;;6.28;2.80;;;;;;;;;;5068242;28;20059;-76
2023/06/11 13:00:26;;;;;;;5.78;2.50;;;;;;;;;;5068177;28;20055;-76
2023/06/11 13:02:58;;;;;;;6.45;3.20;;;;;;;;;;5105571;28;20422;-76
2023/06/11 13:05:28;;;;;;;4.75;3.22;;;;;;;;;;5106137;28;20035;-76
2023/06/11 13:07:58;;;;;;;5.38;2.28;;;;;;;;;;5105253;28;20050;-77
2023/06/11 13:10:29;;;;;;;5.45;2.65;;;;;;;;;;5086603;28;20049;-75
2023/06/11 13:13:00;;;;;;;5.30;2.53;;;;;;;;;;5105435;28;20050;-76
2023/06/11 13:15:30;;;;;;;5.22;3.00;;;;;;;;;;5105251;28;20489;-76
2023/06/11 13:18:00;;;;;;;7.05;3.28;;;;;;;;;;5105269;28;20051;-76
2023/06/11 13:20:31;;;;;;;6.90;3.30;;;;;;;;;;5105077;28;20060;-76
2023/06/11 13:23:04;;;;;;;6.13;2.90;;;;;;;;;;5105156;28;20785;-75
2023/06/11 13:25:36;;;;;;;4.35;2.50;;;;;;;;;;5105600;28;20039;-76
2023/06/11 13:28:07;;;;;;;5.07;2.40;;;;;;;;;;5087207;28;20070;-76
2023/06/11 13:30:37;;;;;;;5.90;2.53;;;;;;;;;;5105754;28;20050;-76
2023/06/11 13:33:08;;;;;;;5.90;2.42;;;;;;;;;;5105578;28;20509;-75
2023/06/11 13:35:39;;;;;;;4.95;2.45;;;;;;;;;;5105103;28;20044;-76
2023/06/11 13:38:10;;;;;;;9.15;2.97;;;;;;;;;;5104784;28;20052;-75
2023/06/11 13:40:39;;;;;;;;;;;;;;;;;;5105463;28;20050;-76
2023/06/11 13:43:10;;;;;;;4.13;2.65;;;;;;;;;;5086781;28;19930;-75
2023/06/11 13:45:47;;;;;;;6.78;2.92;;;;;;;;;;5105482;28;20056;-74
2023/06/11 13:48:19;;;;;;;7.15;3.78;;;;;;;;;;5105557;28;20398;-75
2023/06/11 13:50:51;;;;;;;5.50;2.83;;;;;;;;;;5104868;28;20047;-77
2023/06/11 13:53:22;;;;;;;5.53;3.25;;;;;;;;;;5105055;28;20089;-75
2023/06/11 13:55:53;;;;;;;5.18;2.67;;;;;;;;;;5104759;28;20326;-74
2023/06/11 13:58:25;;;;;;;7.43;2.97;;;;;;;;;;5104743;28;20414;-74
2023/06/11 14:00:55;;;;;;;8.05;4.35;;;;;;;;;;5105231;28;20709;-74
2023/06/11 14:03:25;;;;;;;6.72;4.22;;;;;;;;;;5106500;28;20060;-74
2023/06/11 14:05:59;;;;;;;15.10;6.85;;;;;;;;;;5109332;28;20055;-75
2023/06/11 14:08:30;;;;;;;11.60;5.93;;;;;;;;;;5089677;28;20414;-74
2023/06/11 14:11:03;;;;;;;10.73;4.18;;;;;;;;;;5108025;28;20044;-73
2023/06/11 14:13:33;;;;;;;10.52;3.97;;;;;;;;;;5108245;28;20039;-74
2023/06/11 14:16:03;;;;;;;6.28;3.70;;;;;;;;;;5108629;28;20589;-74
2023/06/11 14:18:33;;;;;;;6.95;3.35;;;;;;;;;;5091020;28;20051;-73
2023/06/11 14:21:07;;;;;;;5.53;2.90;;;;;;;;;;5089345;28;20540;-74
2023/06/11 14:23:38;;;;;;;5.93;2.75;;;;;;;;;;5107651;28;20154;-74
2023/06/11 14:26:10;;;;;;;6.15;3.10;;;;;;;;;;5107737;28;20046;-74
2023/06/11 14:28:40;;;;;;;7.32;3.55;;;;;;;;;;5108068;28;20044;-74
2023/06/11 14:31:11;;;;;;;10.02;4.30;;;;;;;;;;5108358;28;20050;-74
2023/06/11 14:33:42;;;;;;;9.90;3.95;;;;;;;;;;5108594;28;20055;-74
2023/06/11 14:36:14;;;;;;;7.22;2.60;;;;;;;;;;5108110;28;20637;-74
2023/06/11 14:38:44;;;;;;;8.70;3.25;;;;;;;;;;5106832;28;20055;-74
2023/06/11 14:41:16;;;;;;;7.43;3.55;;;;;;;;;;5108157;28;20055;-74
2023/06/11 14:43:46;;;;;;;6.47;2.97;;;;;;;;;;5108042;28;20518;-73
2023/06/11 14:46:17;;;;;;;4.75;2.85;;;;;;;;;;5089583;28;20048;-74
2023/06/11 14:48:47;;;;;;;8.43;3.13;;;;;;;;;;5107937;28;20062;-74
2023/06/11 14:51:18;;;;;;;8.25;3.28;;;;;;;;;;5107950;28;20050;-74
2023/06/11 14:53:48;;;;;;;8.23;2.90;;;;;;;;;;5108105;28;20046;-75
2023/06/11 14:56:19;;;;;;;6.43;2.85;;;;;;;;;;5107607;28;20399;-75
2023/06/11 14:58:50;;;;;;;7.63;2.28;;;;;;;;;;5107873;28;20052;-73
2023/06/11 15:01:21;;;;;;;8.30;2.90;;;;;;;;;;5107806;28;20054;-73
2023/06/11 15:03:53;;;;;;;8.43;2.60;;;;;;;;;;5107668;28;20055;-74
2023/06/11 15:06:24;;;;;;;5.95;2.70;;;;;;;;;;5107786;28;20044;-73
2023/06/11 15:08:54;;;;;;;6.75;2.55;;;;;;;;;;5107624;28;20066;-74
2023/06/11 15:11:24;;;;;;;6.78;3.70;;;;;;;;;;5107375;28;20044;-74
2023/06/11 15:13:58;;;;;;;9.32;4.70;;;;;;;;;;5088241;28;20051;-76
2023/06/11 15:16:30;;;;;;;7.70;3.47;;;;;;;;;;5088848;28;20044;-74